createdAt,value
2017-05-30T00:01:54.090Z,24.20
2017-05-30T00:04:21.652Z,24.20
2017-05-30T00:06:50.002Z,24.10
2017-05-30T00:09:18.343Z,24.10
2017-05-30T00:11:46.677Z,24.00
2017-05-30T00:14:14.267Z,24.00
2017-05-30T00:16:42.627Z,23.90
2017-05-30T00:19:10.988Z,23.90
2017-05-30T00:21:39.320Z,23.80
2017-05-30T00:24:07.640Z,23.80
2017-05-30T00:26:36.013Z,23.70
2017-05-30T00:29:04.357Z,23.70
2017-05-30T00:31:32.736Z,23.60
2017-05-30T00:34:01.069Z,23.60
2017-05-30T00:36:29.436Z,23.50
2017-05-30T00:38:56.984Z,23.50
2017-05-30T00:41:25.344Z,23.50
2017-05-30T00:43:52.923Z,23.40
2017-05-30T00:46:21.263Z,23.40
2017-05-30T00:48:50.609Z,23.40
2017-05-30T00:51:19.034Z,23.40
2017-05-30T00:53:47.384Z,23.30
2017-05-30T00:56:15.737Z,23.30
2017-05-30T00:58:44.106Z,23.20
2017-05-30T01:01:12.565Z,23.20
2017-05-30T01:03:40.882Z,23.20
2017-05-30T01:06:09.262Z,23.20
2017-05-30T01:08:37.596Z,23.10
2017-05-30T01:11:05.939Z,23.10
2017-05-30T01:13:34.255Z,23.10
2017-05-30T01:16:02.629Z,23.10
2017-05-30T01:18:30.963Z,23.00
2017-05-30T01:20:58.545Z,23.00
2017-05-30T01:23:26.927Z,23.00
2017-05-30T01:25:55.584Z,23.00
2017-05-30T01:28:23.923Z,23.00
2017-05-30T01:30:52.242Z,22.90
2017-05-30T01:33:20.640Z,22.90
2017-05-30T01:35:48.998Z,22.90
2017-05-30T01:38:17.329Z,22.80
2017-05-30T01:40:45.677Z,22.80
2017-05-30T01:43:14.073Z,22.80
2017-05-30T01:45:42.427Z,22.70
2017-05-30T01:48:10.775Z,22.70
2017-05-30T01:50:39.189Z,22.70
2017-05-30T01:53:07.564Z,22.70
2017-05-30T01:55:35.931Z,22.60
2017-05-30T01:58:04.292Z,22.70
2017-05-30T02:00:32.654Z,22.60
2017-05-30T02:03:01.009Z,22.60
2017-05-30T02:05:28.581Z,22.60
2017-05-30T02:07:56.953Z,22.50
2017-05-30T02:10:25.292Z,22.40
2017-05-30T02:12:53.671Z,22.40
2017-05-30T02:15:21.997Z,22.40
2017-05-30T02:17:52.005Z,22.30
2017-05-30T02:26:13.358Z,22.20
2017-05-30T02:32:11.713Z,22.20
2017-05-30T02:41:05.203Z,22.10
2017-05-30T02:43:59.495Z,22.10
2017-05-30T02:46:44.831Z,22.10
2017-05-30T02:52:23.800Z,22.00
2017-05-30T02:58:06.787Z,22.00
2017-05-30T03:00:46.227Z,22.00
2017-05-30T03:12:29.469Z,21.90
2017-05-30T03:15:23.515Z,22.00
2017-05-30T03:23:59.483Z,22.00
2017-05-30T03:29:25.286Z,22.20
2017-05-30T03:32:11.991Z,22.20
2017-05-30T03:40:57.294Z,22.20
2017-05-30T03:43:43.607Z,22.20
2017-05-30T03:52:19.486Z,22.40
2017-05-30T04:00:30.302Z,22.60
2017-05-30T04:11:37.459Z,22.80
2017-05-30T04:14:05.808Z,22.90
2017-05-30T04:16:34.228Z,22.90
2017-05-30T04:19:02.858Z,23.00
2017-05-30T04:21:31.215Z,23.00
2017-05-30T04:23:59.524Z,23.10
2017-05-30T04:26:27.879Z,23.20
2017-05-30T04:28:56.184Z,23.20
2017-05-30T04:31:24.529Z,23.30
2017-05-30T04:33:52.892Z,23.30
2017-05-30T04:36:21.270Z,23.40
2017-05-30T04:38:49.650Z,23.40
2017-05-30T04:41:17.252Z,23.40
2017-05-30T04:43:45.654Z,23.50
2017-05-30T04:46:14.000Z,23.50
2017-05-30T04:48:42.505Z,23.50
2017-05-30T04:51:11.769Z,23.50
2017-05-30T04:53:40.157Z,23.60
2017-05-30T04:56:08.510Z,23.70
2017-05-30T04:58:36.066Z,23.60
2017-05-30T05:01:04.439Z,23.80
2017-05-30T05:03:32.838Z,23.80
2017-05-30T05:06:01.212Z,23.80
2017-05-30T05:08:29.545Z,23.90
2017-05-30T05:10:57.879Z,24.00
2017-05-30T05:13:26.201Z,24.00
2017-05-30T05:15:56.124Z,24.10
2017-05-30T05:18:24.446Z,24.20
2017-05-30T05:20:52.799Z,24.20
2017-05-30T05:23:21.122Z,24.30
2017-05-30T05:25:52.393Z,24.40
2017-05-30T05:28:22.652Z,24.40
2017-05-30T05:30:51.020Z,24.50
2017-05-30T05:33:18.630Z,24.50
2017-05-30T05:35:47.011Z,24.60
2017-05-30T05:38:15.367Z,24.70
2017-05-30T05:40:43.722Z,24.80
2017-05-30T05:43:12.050Z,24.90
2017-05-30T05:45:40.682Z,24.90
2017-05-30T05:48:09.020Z,25.00
2017-05-30T05:50:37.367Z,25.00
2017-05-30T05:53:05.776Z,25.10
2017-05-30T05:55:34.098Z,25.20
2017-05-30T05:58:02.426Z,25.30
2017-05-30T06:00:30.806Z,25.40
2017-05-30T06:02:59.159Z,25.40
2017-05-30T06:05:27.478Z,25.50
2017-05-30T06:07:55.837Z,25.60
2017-05-30T06:10:24.162Z,25.70
2017-05-30T06:12:52.556Z,25.80
2017-05-30T06:15:21.105Z,25.90
2017-05-30T06:17:49.482Z,26.00
2017-05-30T06:20:17.824Z,26.20
2017-05-30T06:22:46.191Z,26.30
2017-05-30T06:25:14.538Z,26.40
2017-05-30T06:27:43.760Z,26.60
2017-05-30T06:30:12.083Z,26.60
2017-05-30T06:32:40.412Z,26.80
2017-05-30T06:35:07.954Z,26.70
2017-05-30T06:37:36.300Z,27.00
2017-05-30T06:40:03.867Z,26.90
2017-05-30T06:42:32.210Z,27.10
2017-05-30T06:45:00.570Z,27.20
2017-05-30T06:47:28.930Z,27.30
2017-05-30T06:49:57.256Z,27.40
2017-05-30T06:52:25.597Z,27.50
2017-05-30T06:54:53.944Z,27.60
2017-05-30T06:57:22.305Z,27.70
2017-05-30T06:59:50.641Z,27.90
2017-05-30T07:02:18.959Z,28.10
2017-05-30T07:04:47.299Z,28.20
2017-05-30T07:07:15.669Z,28.40
2017-05-30T07:09:44.093Z,28.60
2017-05-30T07:12:12.439Z,28.80
2017-05-30T07:14:40.820Z,29.00
2017-05-30T07:17:09.219Z,29.20
2017-05-30T07:19:37.625Z,29.30
2017-05-30T07:22:05.181Z,29.30
2017-05-30T07:24:33.517Z,29.70
2017-05-30T07:27:01.841Z,29.90
2017-05-30T07:29:30.177Z,30.00
2017-05-30T07:31:58.543Z,30.10
2017-05-30T07:34:26.145Z,30.10
2017-05-30T07:36:54.469Z,30.20
2017-05-30T07:39:22.926Z,30.30
2017-05-30T07:41:51.338Z,30.30
2017-05-30T07:44:19.697Z,30.40
2017-05-30T07:46:48.044Z,30.40
2017-05-30T07:49:16.385Z,30.40
2017-05-30T07:51:44.694Z,30.50
2017-05-30T07:54:13.053Z,30.60
2017-05-30T07:56:41.415Z,30.60
2017-05-30T07:59:09.781Z,30.70
2017-05-30T08:01:38.091Z,30.60
2017-05-30T08:04:06.481Z,30.50
2017-05-30T08:06:34.824Z,30.30
2017-05-30T08:09:03.182Z,30.20
2017-05-30T08:11:31.561Z,30.10
2017-05-30T08:13:59.906Z,30.00
2017-05-30T08:16:28.238Z,29.90
2017-05-30T08:18:56.574Z,29.90
2017-05-30T08:21:24.892Z,29.80
2017-05-30T08:23:53.246Z,29.80
2017-05-30T08:26:21.576Z,29.80
2017-05-30T08:28:51.404Z,29.80
2017-05-30T08:31:19.735Z,29.80
2017-05-30T08:33:48.091Z,29.70
2017-05-30T08:36:16.437Z,29.70
2017-05-30T08:38:44.782Z,29.60
2017-05-30T08:41:13.124Z,29.60
2017-05-30T08:43:40.687Z,29.60
2017-05-30T08:46:09.039Z,29.60
2017-05-30T08:48:38.203Z,29.60
2017-05-30T08:51:05.790Z,29.60
2017-05-30T08:53:34.097Z,29.70
2017-05-30T08:56:02.489Z,29.70
2017-05-30T08:58:30.814Z,29.60
2017-05-30T09:00:58.401Z,29.60
2017-05-30T09:03:26.847Z,29.60
2017-05-30T09:05:55.197Z,29.60
2017-05-30T09:08:23.534Z,29.80
2017-05-30T09:10:51.907Z,30.00
2017-05-30T09:13:20.273Z,30.00
2017-05-30T09:15:48.681Z,30.10
2017-05-30T09:18:17.019Z,30.20
2017-05-30T09:20:45.364Z,30.30
2017-05-30T09:23:13.670Z,30.50
2017-05-30T09:25:42.013Z,30.70
2017-05-30T09:28:10.350Z,30.90
2017-05-30T09:30:38.685Z,31.00
2017-05-30T09:33:06.241Z,31.10
2017-05-30T09:35:34.660Z,31.40
2017-05-30T09:38:03.005Z,31.50
2017-05-30T09:40:31.384Z,31.70
2017-05-30T09:42:59.744Z,32.00
2017-05-30T09:45:28.103Z,32.20
2017-05-30T09:47:56.453Z,32.40
2017-05-30T09:50:24.812Z,32.70
2017-05-30T09:52:52.465Z,32.60
2017-05-30T09:55:20.811Z,33.10
2017-05-30T09:57:49.134Z,33.30
2017-05-30T10:00:17.931Z,33.40
2017-05-30T10:02:46.854Z,33.50
2017-05-30T10:05:15.168Z,33.60
2017-05-30T10:07:43.516Z,33.60
2017-05-30T10:10:11.922Z,33.60
2017-05-30T10:12:40.656Z,33.70
2017-05-30T10:15:09.818Z,33.80
2017-05-30T10:17:38.381Z,33.80
2017-05-30T10:20:06.704Z,33.90
2017-05-30T10:22:35.029Z,33.90
2017-05-30T10:25:03.442Z,33.90
2017-05-30T10:27:31.795Z,33.90
2017-05-30T10:29:59.350Z,33.90
2017-05-30T10:32:27.732Z,34.10
2017-05-30T10:34:56.067Z,34.00
2017-05-30T10:37:24.422Z,34.00
2017-05-30T10:39:52.804Z,34.00
2017-05-30T10:42:21.203Z,34.10
2017-05-30T10:44:49.542Z,34.20
2017-05-30T10:47:17.882Z,34.40
2017-05-30T10:49:45.440Z,34.30
2017-05-30T10:52:13.782Z,34.30
2017-05-30T10:54:42.119Z,34.00
2017-05-30T10:57:10.470Z,33.60
2017-05-30T10:59:38.792Z,33.20
2017-05-30T11:02:07.146Z,32.80
2017-05-30T11:04:35.502Z,32.50
2017-05-30T11:07:03.873Z,32.20
2017-05-30T11:09:31.489Z,32.20
2017-05-30T11:11:59.075Z,32.00
2017-05-30T11:14:27.455Z,31.50
2017-05-30T11:16:55.829Z,31.30
2017-05-30T11:19:24.162Z,31.20
2017-05-30T11:21:52.499Z,31.20
2017-05-30T11:24:20.817Z,31.20
2017-05-30T11:26:49.177Z,31.40
2017-05-30T11:29:17.523Z,31.60
2017-05-30T11:31:45.885Z,31.70
2017-05-30T11:34:14.321Z,32.10
2017-05-30T11:36:42.644Z,32.50
2017-05-30T11:39:12.047Z,32.90
2017-05-30T11:41:56.772Z,33.40
2017-05-30T11:44:25.112Z,33.90
2017-05-30T11:46:53.420Z,34.10
2017-05-30T11:49:21.014Z,34.10
2017-05-30T11:51:49.349Z,34.70
2017-05-30T11:54:17.704Z,35.40
2017-05-30T11:56:46.006Z,36.20
2017-05-30T11:59:14.364Z,37.10
2017-05-30T12:01:42.707Z,37.90
2017-05-30T12:04:11.061Z,38.50
2017-05-30T12:06:39.366Z,39.10
2017-05-30T12:09:07.744Z,39.60
2017-05-30T12:11:35.329Z,39.60
2017-05-30T12:14:03.686Z,40.20
2017-05-30T12:16:32.029Z,40.60
2017-05-30T12:19:00.374Z,40.80
2017-05-30T12:21:28.697Z,40.70
2017-05-30T12:23:56.278Z,40.70
2017-05-30T12:26:24.618Z,40.70
2017-05-30T12:28:52.973Z,40.80
2017-05-30T12:31:20.532Z,40.80
2017-05-30T12:33:48.127Z,41.10
2017-05-30T12:36:16.428Z,41.70
2017-05-30T12:38:44.770Z,42.20
2017-05-30T12:41:12.323Z,42.20
2017-05-30T12:43:40.670Z,43.00
2017-05-30T12:46:09.000Z,42.90
2017-05-30T12:48:37.339Z,42.70
2017-05-30T12:51:05.657Z,42.40
2017-05-30T12:53:34.010Z,42.00
2017-05-30T12:56:02.352Z,41.60
2017-05-30T12:58:29.909Z,41.60
2017-05-30T13:00:58.259Z,41.00
2017-05-30T13:03:26.588Z,40.60
2017-05-30T13:05:54.944Z,40.00
2017-05-30T13:08:23.258Z,39.50
2017-05-30T13:10:51.581Z,39.00
2017-05-30T13:13:19.936Z,38.40
2017-05-30T13:15:48.289Z,38.10
2017-05-30T13:18:16.615Z,37.50
2017-05-30T13:20:44.990Z,37.10
2017-05-30T13:23:13.298Z,36.70
2017-05-30T13:25:41.686Z,36.50
2017-05-30T13:28:09.986Z,36.40
2017-05-30T13:30:38.351Z,36.60
2017-05-30T13:33:06.687Z,37.10
2017-05-30T13:35:35.506Z,37.80
2017-05-30T13:38:05.018Z,38.20
2017-05-30T13:40:34.334Z,38.60
2017-05-30T13:43:03.541Z,38.70
2017-05-30T13:45:32.090Z,38.90
2017-05-30T13:48:00.714Z,39.00
2017-05-30T13:50:28.342Z,39.10
2017-05-30T13:52:57.142Z,39.40
2017-05-30T13:55:26.216Z,39.40
2017-05-30T13:57:54.792Z,39.50
2017-05-30T14:00:23.156Z,39.50
2017-05-30T14:02:52.367Z,39.90
2017-05-30T14:05:21.563Z,40.00
2017-05-30T14:07:50.852Z,40.00
2017-05-30T14:10:20.116Z,40.10
2017-05-30T14:12:49.363Z,40.30
2017-05-30T14:15:17.869Z,40.60
2017-05-30T14:17:46.206Z,41.20
2017-05-30T14:20:14.585Z,41.90
2017-05-30T14:22:42.902Z,42.50
2017-05-30T14:25:11.311Z,43.10
2017-05-30T14:27:39.947Z,43.70
2017-05-30T14:30:08.515Z,44.30
2017-05-30T14:32:36.876Z,44.90
2017-05-30T14:35:05.265Z,45.60
2017-05-30T14:37:33.617Z,45.90
2017-05-30T14:40:01.940Z,46.00
2017-05-30T14:42:30.369Z,46.10
2017-05-30T14:44:58.702Z,46.10
2017-05-30T14:47:27.089Z,46.10
2017-05-30T14:49:55.407Z,45.90
2017-05-30T14:52:23.764Z,45.30
2017-05-30T14:54:52.078Z,45.10
2017-05-30T14:57:21.028Z,45.20
2017-05-30T14:59:49.362Z,45.00
2017-05-30T15:02:17.706Z,44.60
2017-05-30T15:04:46.017Z,44.30
2017-05-30T15:07:14.431Z,44.20
2017-05-30T15:09:42.797Z,44.00
2017-05-30T15:12:11.187Z,43.80
2017-05-30T15:14:39.536Z,43.50
2017-05-30T15:17:07.874Z,43.30
2017-05-30T15:19:36.234Z,42.90
2017-05-30T15:22:04.609Z,42.30
2017-05-30T15:24:32.951Z,41.60
2017-05-30T15:27:01.308Z,40.70
2017-05-30T15:29:29.659Z,39.80
2017-05-30T15:31:57.248Z,39.80
2017-05-30T15:34:25.804Z,38.30
2017-05-30T15:36:54.165Z,37.70
2017-05-30T15:39:21.737Z,37.60
2017-05-30T15:41:50.102Z,37.00
2017-05-30T15:44:18.426Z,37.30
2017-05-30T15:46:47.065Z,37.60
2017-05-30T15:49:14.633Z,37.60
2017-05-30T15:51:42.201Z,38.00
2017-05-30T15:54:10.556Z,38.30
2017-05-30T15:56:38.884Z,38.50
2017-05-30T15:59:07.215Z,38.70
2017-05-30T16:01:35.551Z,39.00
2017-05-30T16:04:03.951Z,39.10
2017-05-30T16:06:32.354Z,39.00
2017-05-30T16:09:00.777Z,38.70
2017-05-30T16:11:29.157Z,38.20
2017-05-30T16:13:57.533Z,37.80
2017-05-30T16:16:25.847Z,37.30
2017-05-30T16:18:54.189Z,36.90
2017-05-30T16:21:22.509Z,36.30
2017-05-30T16:23:50.875Z,35.70
2017-05-30T16:26:19.207Z,35.30
2017-05-30T16:28:47.599Z,34.90
2017-05-30T16:31:15.947Z,34.50
2017-05-30T16:33:44.304Z,34.20
2017-05-30T16:36:13.199Z,34.00
2017-05-30T16:38:41.573Z,33.70
2017-05-30T16:41:09.892Z,33.50
2017-05-30T16:43:38.262Z,33.20
2017-05-30T16:46:06.569Z,33.00
2017-05-30T16:48:34.985Z,32.80
2017-05-30T16:51:03.297Z,32.40
2017-05-30T16:53:31.667Z,32.10
2017-05-30T16:56:00.025Z,31.80
2017-05-30T16:58:28.366Z,31.40
2017-05-30T17:00:56.713Z,31.20
2017-05-30T17:03:25.071Z,30.90
2017-05-30T17:05:53.394Z,30.80
2017-05-30T17:08:22.082Z,30.70
2017-05-30T17:10:50.430Z,30.60
2017-05-30T17:13:18.015Z,30.60
2017-05-30T17:15:48.278Z,30.40
2017-05-30T17:18:16.662Z,30.30
2017-05-30T17:20:44.950Z,30.20
2017-05-30T17:23:14.025Z,29.90
2017-05-30T17:25:43.219Z,29.40
2017-05-30T17:28:11.645Z,28.60
2017-05-30T17:30:40.044Z,27.20
2017-05-30T17:33:08.391Z,25.60
2017-05-30T17:35:36.771Z,24.30
2017-05-30T17:38:05.142Z,23.30
2017-05-30T17:40:32.778Z,23.10
2017-05-30T17:43:00.394Z,22.50
2017-05-30T17:45:28.829Z,21.50
2017-05-30T17:47:58.502Z,21.10
2017-05-30T17:50:29.589Z,20.90
2017-05-30T17:52:58.195Z,20.70
2017-05-30T17:55:26.706Z,20.60
2017-05-30T17:57:55.088Z,20.40
2017-05-30T18:02:56.853Z,20.30
2017-05-30T18:05:25.246Z,20.30
2017-05-30T18:07:53.683Z,20.30
2017-05-30T18:10:22.076Z,20.30
2017-05-30T18:12:50.742Z,20.30
2017-05-30T18:15:19.132Z,20.30
2017-05-30T18:17:47.494Z,20.30
2017-05-30T18:20:15.896Z,20.30
2017-05-30T18:22:44.264Z,20.30
2017-05-30T18:25:12.666Z,20.40
2017-05-30T18:27:41.014Z,20.40
2017-05-30T18:30:09.402Z,20.40
2017-05-30T18:32:37.894Z,20.50
2017-05-30T18:35:06.693Z,20.40
2017-05-30T18:37:35.109Z,20.40
2017-05-30T18:40:03.806Z,20.50
2017-05-30T18:42:31.400Z,20.50
2017-05-30T18:44:59.772Z,20.60
2017-05-30T18:47:28.196Z,20.60
2017-05-30T18:49:56.555Z,20.60
2017-05-30T18:52:24.950Z,20.70
2017-05-30T18:54:52.519Z,20.70
2017-05-30T18:57:20.932Z,20.70
2017-05-30T18:59:48.937Z,20.70
2017-05-30T19:02:17.687Z,20.70
2017-05-30T19:19:15.156Z,20.70
2017-05-30T19:21:49.967Z,20.70
2017-05-30T19:24:18.402Z,20.70
2017-05-30T19:29:24.780Z,20.70
2017-05-30T19:31:55.457Z,20.70
2017-05-30T19:34:29.512Z,20.70
2017-05-30T19:45:49.423Z,20.70
2017-05-30T19:48:42.886Z,20.70
2017-05-30T19:51:21.590Z,20.70
2017-05-30T19:53:50.009Z,20.80
2017-05-30T19:56:18.416Z,20.70
2017-05-30T19:58:47.196Z,20.70
2017-05-30T20:01:15.637Z,20.70
2017-05-30T20:03:44.012Z,20.70
2017-05-30T20:06:12.717Z,20.70
2017-05-30T20:08:41.137Z,20.70
2017-05-30T20:11:09.496Z,20.70
2017-05-30T20:13:38.293Z,20.70
2017-05-30T20:16:07.150Z,20.80
2017-05-30T20:18:35.891Z,20.80
2017-05-30T20:21:03.912Z,20.80
2017-05-30T20:23:31.533Z,20.90
2017-05-30T20:25:59.983Z,21.00
2017-05-30T20:28:27.833Z,21.00
2017-05-30T20:33:36.185Z,21.00
2017-05-30T20:36:13.801Z,20.90
2017-05-30T20:38:42.490Z,20.90
2017-05-30T20:41:10.886Z,20.90
2017-05-30T20:43:39.245Z,20.70
2017-05-30T20:46:07.866Z,20.60
2017-05-30T20:48:36.224Z,20.50
2017-05-30T20:51:04.578Z,20.50
2017-05-30T20:53:32.380Z,20.40
2017-05-30T20:56:00.965Z,20.40
2017-05-30T20:58:29.295Z,20.40
2017-05-30T21:00:57.947Z,20.40
2017-05-30T21:03:26.430Z,20.30
2017-05-30T21:05:54.950Z,20.30
2017-05-30T21:08:24.270Z,20.30
2017-05-30T21:10:52.781Z,20.30
2017-05-30T21:13:21.113Z,20.30
2017-05-30T21:15:49.683Z,20.30
2017-05-30T21:18:18.056Z,20.30
2017-05-30T21:20:46.392Z,20.30
2017-05-30T21:23:15.338Z,20.30
2017-05-30T21:25:44.207Z,20.30
2017-05-30T21:28:12.756Z,20.30
2017-05-30T21:30:41.563Z,20.30
2017-05-30T21:33:09.886Z,20.30
2017-05-30T21:35:38.192Z,20.30
2017-05-30T21:38:06.842Z,20.30
2017-05-30T21:40:34.426Z,20.30
2017-05-30T21:43:02.753Z,20.30
2017-05-30T21:45:31.514Z,20.30
2017-05-30T21:47:59.879Z,20.20
2017-05-30T21:50:28.297Z,20.20
2017-05-30T21:52:57.187Z,20.20
2017-05-30T21:55:25.543Z,20.20
2017-05-30T21:57:53.904Z,20.10
2017-05-30T22:00:22.522Z,20.10
2017-05-30T22:02:51.856Z,20.10
2017-05-30T22:05:19.436Z,20.10
2017-05-30T22:07:48.026Z,20.10
2017-05-30T22:10:16.381Z,20.10
2017-05-30T22:12:44.724Z,20.00
2017-05-30T22:15:13.314Z,20.00
2017-05-30T22:17:42.474Z,20.00
2017-05-30T22:20:10.842Z,20.00
2017-05-30T22:22:39.454Z,20.00
2017-05-30T22:25:07.107Z,19.90
2017-05-30T22:27:35.462Z,20.00
2017-05-30T22:30:04.132Z,20.00
2017-05-30T22:32:32.474Z,20.00
2017-05-30T22:35:00.051Z,19.90
2017-05-30T22:37:28.677Z,19.90
2017-05-30T22:39:57.014Z,19.90
2017-05-30T22:42:25.416Z,19.90
2017-05-30T22:44:54.003Z,19.80
2017-05-30T22:47:22.358Z,19.80
2017-05-30T22:49:50.007Z,19.80
2017-05-30T22:52:18.741Z,19.80
2017-05-30T22:54:47.083Z,19.80
2017-05-30T22:57:15.396Z,19.80
2017-05-30T22:59:44.005Z,19.70
2017-05-30T23:02:12.430Z,19.70
2017-05-30T23:04:40.752Z,19.80
2017-05-30T23:07:09.365Z,19.70
2017-05-30T23:09:36.959Z,19.80
2017-05-30T23:12:05.324Z,19.80
2017-05-30T23:14:34.075Z,19.80
2017-05-30T23:17:02.413Z,19.80
2017-05-30T23:19:30.795Z,19.80
2017-05-30T23:21:59.589Z,19.80
2017-05-30T23:24:28.088Z,19.80
2017-05-30T23:26:56.524Z,19.80
2017-05-30T23:29:25.074Z,19.80
2017-05-30T23:31:53.485Z,19.80
2017-05-30T23:34:21.825Z,19.80
2017-05-30T23:36:50.588Z,19.80
2017-05-30T23:39:18.946Z,19.80
2017-05-30T23:41:47.298Z,19.80
2017-05-30T23:44:16.029Z,19.80
2017-05-30T23:46:44.416Z,19.80
2017-05-30T23:49:12.027Z,19.80
2017-05-30T23:51:40.745Z,19.80
2017-05-30T23:54:09.098Z,19.80
2017-05-30T23:56:37.437Z,19.80
2017-05-30T23:59:06.032Z,19.80
